Time;durP1;ratioP1;P1;durP2;ratioP2;P2;SDS_P1;SDS_P2;PMS_P1;PMS_P2;Temp;Humidity;BMP_temperature;BMP_pressure;BME280_temperature;BME280_humidity;BME280_pressure;Samples;Min_cycle;Max_cycle;Signal;HPM_P1;HPM_P2
2023/07/02 00:00:00;;;;;;;;;;;;;;;22.94;95.33;98765.72;350472;28;1011;-76
2023/07/02 00:00:11;;;;;;;;;;;;;;;22.96;95.08;98772.53;347627;28;919;-75
2023/07/02 00:00:21;;;;;;;;;;;;;;;22.96;95.09;98763.75;346431;28;793;-75
2023/07/02 00:00:31;;;;;;;;;;;;;;;22.97;95.11;98766.22;347910;28;1315;-76
2023/07/02 00:00:42;;;;;;;;;;;;;;;22.97;95.37;98760.03;347807;28;1313;-76
2023/07/02 00:00:52;;;;;;;;;;;;;;;22.97;95.16;98758.22;350591;28;1610;-75
2023/07/02 00:01:02;;;;;;;;;;;;;;;22.99;94.90;98766.06;352194;28;1242;-76
2023/07/02 00:01:12;;;;;;;;;;;;;;;23.00;95.03;98767.72;347789;28;1241;-76
2023/07/02 00:01:23;;;;;;;;;;;;;;;23.01;94.99;98764.06;345814;28;1386;-74
2023/07/02 00:01:33;;;;;;;;;;;;;;;23.00;94.59;98760.56;343681;28;761;-76
2023/07/02 00:01:43;;;;;;;;;;;;;;;23.01;94.92;98764.06;342154;28;1310;-76
2023/07/02 00:01:53;;;;;;;;;;;;;;;23.01;94.69;98764.88;342055;28;1369;-76
2023/07/02 00:02:04;;;;;;;;;;;;;;;23.01;94.51;98764.06;340877;29;2002;-76
2023/07/02 00:02:15;;;;;;;;;;;;;;;23.02;94.63;98765.72;342158;28;1218;-76
2023/07/02 00:02:26;;;;;;;;;;;;;;;23.02;94.45;98763.91;342374;28;4524;-75
2023/07/02 00:02:36;;;;;;;;;;;;;;;23.02;94.40;98766.56;342318;28;805;-75
2023/07/02 00:02:46;;;;;;;;;;;;;;;23.01;94.29;98764.88;342508;28;758;-76
2023/07/02 00:02:57;;;;;;;;;;;;;;;23.03;94.64;98767.41;339141;29;1405;-76
2023/07/02 00:03:07;;;;;;;;;;;;;;;23.01;94.58;98764.88;339467;29;1779;-75
2023/07/02 00:03:21;;;;;;;;;;;;;;;23.01;94.23;98766.72;339707;29;1015;-74
2023/07/02 00:03:31;;;;;;;;;;;;;;;23.02;94.69;98765.72;339729;29;1464;-76
2023/07/02 00:03:42;;;;;;;;;;;;;;;23.01;94.54;98758.72;337757;29;1449;-75
2023/07/02 00:03:52;;;;;;;;;;;;;;;23.01;94.63;98769.41;337611;28;1626;-75
2023/07/02 00:04:02;;;;;;;;;;;;;;;23.00;94.42;98770.38;338308;29;1219;-76
2023/07/02 00:04:15;;;;;;;;;;;;;;;22.99;94.75;98771.38;339518;29;1318;-75
2023/07/02 00:04:26;;;;;;;;;;;;;;;22.99;94.75;98774.06;340233;29;1270;-75
2023/07/02 00:04:36;;;;;;;;;;;;;;;22.98;95.02;98764.38;337848;29;1492;-74
2023/07/02 00:04:46;;;;;;;;;;;;;;;22.98;94.82;98769.72;337072;29;932;-74
2023/07/02 00:04:56;;;;;;;;;;;;;;;22.98;95.37;98780.38;334987;29;1528;-75
2023/07/02 00:05:07;;;;;;;;;;;;;;;22.97;95.20;98765.38;333405;29;1928;-75
2023/07/02 00:05:18;;;;;;;;;;;;;;;22.98;95.55;98775.06;334474;29;1284;-77
2023/07/02 00:05:28;;;;;;;;;;;;;;;22.97;95.16;98771.56;330130;29;2302;-74
2023/07/02 00:05:38;;;;;;;;;;;;;;;22.97;95.43;98770.72;328354;29;2051;-75
2023/07/02 00:05:54;;;;;;;;;;;;;;;22.97;95.35;98771.56;329412;30;1189;-75
2023/07/02 00:06:04;;;;;;;;;;;;;;;22.97;95.77;98768.88;328017;30;1349;-78
2023/07/02 00:06:18;;;;;;;;;;;;;;;22.96;95.37;98767.22;322807;30;2394;-75
2023/07/02 00:06:28;;;;;;;;;;;;;;;22.97;95.26;98768.88;328554;29;2071;-75
2023/07/02 00:06:40;;;;;;;;;;;;;;;22.96;95.70;98766.41;330376;29;1465;-74
2023/07/02 00:06:51;;;;;;;;;;;;;;;22.95;95.81;98767.41;330718;29;1238;-75
2023/07/02 00:07:01;;;;;;;;;;;;;;;22.95;95.14;98770.06;328218;30;1159;-74
2023/07/02 00:07:11;;;;;;;;;;;;;;;22.96;95.62;98771.75;325793;30;2153;-75
2023/07/02 00:07:21;;;;;;;;;;;;;;;22.95;95.63;98764.72;322214;30;2525;-74
2023/07/02 00:07:32;;;;;;;;;;;;;;;22.95;95.51;98762.06;324659;30;1673;-75
2023/07/02 00:07:43;;;;;;;;;;;;;;;22.95;95.45;98770.06;324515;30;2887;-75
2023/07/02 00:07:53;;;;;;;;;;;;;;;22.95;95.41;98759.41;323681;29;2848;-75
2023/07/02 00:08:04;;;;;;;;;;;;;;;22.95;95.71;98770.06;325618;30;1583;-77
2023/07/02 00:08:14;;;;;;;;;;;;;;;22.94;95.36;98757.72;327123;30;3306;-74
2023/07/02 00:08:25;;;;;;;;;;;;;;;22.93;95.28;98764.91;326292;30;3008;-73
2023/07/02 00:08:35;;;;;;;;;;;;;;;22.94;95.06;98763.91;327007;30;1564;-74
2023/07/02 00:08:45;;;;;;;;;;;;;;;22.93;95.12;98761.38;327733;30;2497;-75
2023/07/02 00:08:55;;;;;;;;;;;;;;;22.93;95.47;98758.72;323622;30;2409;-74
2023/07/02 00:09:06;;;;;;;;;;;;;;;22.93;95.13;98761.38;321922;30;2222;-75
2023/07/02 00:09:16;;;;;;;;;;;;;;;22.93;94.88;98761.38;323460;30;1257;-76
2023/07/02 00:09:26;;;;;;;;;;;;;;;22.93;94.68;98761.38;322220;30;2761;-75
2023/07/02 00:09:38;;;;;;;;;;;;;;;22.92;94.59;98760.56;321936;30;3965;-75
2023/07/02 00:09:48;;;;;;;;;;;;;;;22.92;94.02;98759.72;322163;30;1358;-74
2023/07/02 00:09:58;;;;;;;;;;;;;;;22.92;94.35;98762.38;318023;30;4360;-75
2023/07/02 00:10:10;;;;;;;;;;;;;;;22.92;94.24;98759.72;316994;30;3697;-75
2023/07/02 00:10:21;;;;;;;;;;;;;;;22.91;93.91;98758.03;316207;31;3495;-75
2023/07/02 00:10:31;;;;;;;;;;;;;;;22.92;93.41;98765.06;309700;31;1638;-75
2023/07/02 00:10:42;;;;;;;;;;;;;;;22.91;93.84;98760.72;309811;31;3934;-75
2023/07/02 00:10:53;;;;;;;;;;;;;;;22.91;93.60;98766.06;309103;31;3214;-75
2023/07/02 00:11:03;;;;;;;;;;;;;;;22.92;93.36;98759.72;309826;31;950;-75
2023/07/02 00:11:15;;;;;;;;;;;;;;;22.91;93.68;98760.72;305951;31;2526;-75
2023/07/02 00:11:25;;;;;;;;;;;;;;;22.90;93.38;98762.53;304892;32;3848;-74
2023/07/02 00:11:38;;;;;;;;;;;;;;;22.90;93.27;98762.53;304919;32;4636;-74
2023/07/02 00:11:49;;;;;;;;;;;;;;;22.91;93.49;98766.06;305194;32;1992;-75
2023/07/02 00:11:59;;;;;;;;;;;;;;;22.89;93.08;98767.03;306161;32;5347;-76
2023/07/02 00:12:09;;;;;;;;;;;;;;;22.92;92.98;98765.06;302174;32;6252;-75
2023/07/02 00:12:20;;;;;;;;;;;;;;;22.91;93.21;98763.38;298728;32;5495;-75
2023/07/02 00:12:31;;;;;;;;;;;;;;;22.92;93.45;98762.38;294170;33;1202;-76
2023/07/02 00:12:42;;;;;;;;;;;;;;;22.92;93.26;98768.56;293461;33;6738;-75
2023/07/02 00:12:52;;;;;;;;;;;;;;;22.91;93.57;98763.38;292381;33;5599;-75
2023/07/02 00:13:02;;;;;;;;;;;;;;;22.93;93.53;98761.38;295062;33;1305;-75
2023/07/02 00:13:13;;;;;;;;;;;;;;;22.92;93.17;98765.06;291957;33;4973;-74
2023/07/02 00:13:23;;;;;;;;;;;;;;;22.91;92.63;98763.38;291268;33;3907;-75
2023/07/02 00:13:34;;;;;;;;;;;;;;;22.91;92.79;98763.38;290372;34;1410;-75
2023/07/02 00:13:45;;;;;;;;;;;;;;;22.91;92.59;98766.06;290255;34;5259;-75
2023/07/02 00:13:55;;;;;;;;;;;;;;;22.89;92.61;98777.72;292023;33;6655;-74
2023/07/02 00:14:06;;;;;;;;;;;;;;;22.91;92.04;98764.22;293942;33;7780;-74
2023/07/02 00:14:16;;;;;;;;;;;;;;;22.88;92.45;98765.38;290375;34;1033;-76
2023/07/02 00:14:27;;;;;;;;;;;;;;;22.88;92.53;98768.03;287311;34;9600;-74
2023/07/02 00:14:38;;;;;;;;;;;;;;;22.88;92.12;98765.38;287492;33;7484;-75
2023/07/02 00:14:52;;;;;;;;;;;;;;;22.88;92.38;98768.03;291729;33;1225;-74
2023/07/02 00:15:04;;;;;;;;;;;;;;;22.89;91.83;98761.72;284673;34;1293;-74
2023/07/02 00:15:14;;;;;;;;;;;;;;;22.87;91.99;98761.03;284129;34;7501;-75
2023/07/02 00:15:25;;;;;;;;;;;;;;;22.88;92.10;98764.53;283271;34;6683;-74
2023/07/02 00:15:35;;;;;;;;;;;;;;;22.87;91.96;98769.03;282836;35;857;-74
2023/07/02 00:15:45;;;;;;;;;;;;;;;22.87;91.88;98769.03;278256;34;6361;-75
2023/07/02 00:17:58;;;;;;;;;;;;;;;22.85;91.79;98764.88;2501451;27;20420;-76
2023/07/02 00:18:09;;;;;;;;;;;;;;;22.84;91.68;98764.03;354167;27;1496;-76
2023/07/02 00:18:19;;;;;;;;;;;;;;;22.84;91.83;98768.53;351926;28;1174;-75
2023/07/02 00:18:33;;;;;;;;;;;;;;;22.84;91.93;98764.03;349150;28;1384;-75
2023/07/02 00:18:44;;;;;;;;;;;;;;;22.85;91.55;98765.69;345324;28;1042;-74
2023/07/02 00:18:54;;;;;;;;;;;;;;;22.85;91.48;98765.69;349095;28;797;-75
2023/07/02 00:19:04;;;;;;;;;;;;;;;22.86;91.89;98775.38;350515;28;1312;-74
2023/07/02 00:19:15;;;;;;;;;;;;;;;22.85;91.58;98760.34;348836;28;1323;-74
2023/07/02 00:19:25;;;;;;;;;;;;;;;22.84;91.63;98764.03;350338;28;883;-73
2023/07/02 00:19:35;;;;;;;;;;;;;;;22.85;92.02;98760.34;350415;28;1959;-75
2023/07/02 00:19:46;;;;;;;;;;;;;;;22.85;91.61;98765.69;348993;28;1331;-75
2023/07/02 00:19:56;;;;;;;;;;;;;;;22.85;92.02;98760.34;350330;28;1334;-75
2023/07/02 00:20:16;;;;;;;;;;;;;;;22.85;91.85;98768.38;348870;28;1335;-75
2023/07/02 00:20:27;;;;;;;;;;;;;;;22.86;91.92;98767.38;350339;28;949;-75
2023/07/02 00:20:37;;;;;;;;;;;;;;;22.86;92.27;98756.69;349854;28;3559;-74
2023/07/02 00:20:47;;;;;;;;;;;;;;;22.87;91.72;98763.72;347239;28;5179;-73
2023/07/02 00:20:58;;;;;;;;;;;;;;;22.86;92.17;98762.03;348282;28;3165;-75
2023/07/02 00:21:13;;;;;;;;;;;;;;;22.87;92.11;98757.53;350352;28;1543;-77
2023/07/02 00:21:27;;;;;;;;;;;;;;;22.87;91.98;98760.19;349926;28;860;-75
2023/07/02 00:21:38;;;;;;;;;;;;;;;22.86;92.01;98762.03;348848;28;1394;-74
2023/07/02 00:21:49;;;;;;;;;;;;;;;22.85;91.97;98770.19;349086;28;1585;-74
2023/07/02 00:21:59;;;;;;;;;;;;;;;22.84;92.17;98774.69;348999;28;1306;-75
2023/07/02 00:22:10;;;;;;;;;;;;;;;22.84;91.77;98769.38;348098;28;1207;-74
2023/07/02 00:22:20;;;;;;;;;;;;;;;22.85;92.23;98764.88;347583;28;1229;-75
2023/07/02 00:22:31;;;;;;;;;;;;;;;22.83;92.07;98769.53;348602;28;1768;-75
2023/07/02 00:22:45;;;;;;;;;;;;;;;22.82;92.15;98760.69;346273;28;1362;-75
2023/07/02 00:22:56;;;;;;;;;;;;;;;22.82;92.27;98770.53;347850;28;797;-76
2023/07/02 00:23:08;;;;;;;;;;;;;;;22.82;92.04;98766.03;345107;28;853;-75
2023/07/02 00:23:20;;;;;;;;;;;;;;;22.83;92.20;98770.34;344750;28;1305;-75
2023/07/02 00:23:30;;;;;;;;;;;;;;;22.83;91.93;98762.34;345063;28;972;-76
2023/07/02 00:23:41;;;;;;;;;;;;;;;22.83;92.07;98770.34;346234;28;1242;-75
2023/07/02 00:23:51;;;;;;;;;;;;;;;22.80;92.22;98768.00;346784;28;1458;-76
2023/07/02 00:24:01;;;;;;;;;;;;;;;22.81;92.01;98775.03;349161;28;784;-74
2023/07/02 00:24:11;;;;;;;;;;;;;;;22.80;92.53;98770.69;348654;28;1226;-75
2023/07/02 00:24:22;;;;;;;;;;;;;;;22.80;92.24;98768.00;346101;28;1208;-75
2023/07/02 00:24:32;;;;;;;;;;;;;;;22.80;92.17;98768.00;347737;28;774;-76
2023/07/02 00:24:42;;;;;;;;;;;;;;;22.80;92.42;98767.19;350439;28;1472;-73
2023/07/02 00:24:55;;;;;;;;;;;;;;;22.81;92.53;98768.84;350531;28;858;-75
2023/07/02 00:25:06;;;;;;;;;;;;;;;22.79;92.31;98769.00;347727;28;915;-76
2023/07/02 00:25:16;;;;;;;;;;;;;;;22.80;92.02;98773.34;346546;28;824;-74
2023/07/02 00:25:27;;;;;;;;;;;;;;;22.80;92.02;98770.69;347697;28;870;-75
2023/07/02 00:25:38;;;;;;;;;;;;;;;22.79;92.34;98766.34;348908;28;1243;-75
2023/07/02 00:25:49;;;;;;;;;;;;;;;22.79;92.05;98777.00;348926;28;1233;-75
2023/07/02 00:25:59;;;;;;;;;;;;;;;22.78;92.52;98770.00;346476;28;1314;-75
2023/07/02 00:26:09;;;;;;;;;;;;;;;22.77;92.32;98772.81;343831;28;1022;-75
2023/07/02 00:26:19;;;;;;;;;;;;;;;22.76;92.95;98765.78;343765;28;1308;-74
2023/07/02 00:26:30;;;;;;;;;;;;;;;22.76;92.27;98769.28;344948;28;1243;-75
2023/07/02 00:26:41;;;;;;;;;;;;;;;22.76;92.48;98777.31;343755;28;1584;-76
2023/07/02 00:26:51;;;;;;;;;;;;;;;22.77;92.93;98778.13;343439;28;1340;-75
2023/07/02 00:27:01;;;;;;;;;;;;;;;22.76;92.47;98771.97;343660;28;876;-75
2023/07/02 00:27:11;;;;;;;;;;;;;;;22.78;92.60;98775.34;342112;28;1134;-75
2023/07/02 00:27:21;;;;;;;;;;;;;;;22.77;92.65;98770.97;341032;29;825;-74
2023/07/02 00:27:32;;;;;;;;;;;;;;;22.78;92.85;98770.00;341419;28;849;-74
2023/07/02 00:27:42;;;;;;;;;;;;;;;22.79;93.02;98777.00;340808;28;1277;-75
2023/07/02 00:27:52;;;;;;;;;;;;;;;22.79;93.25;98776.19;342074;28;1169;-75
2023/07/02 00:28:03;;;;;;;;;;;;;;;22.77;93.26;98770.97;343296;28;1373;-75
2023/07/02 00:28:13;;;;;;;;;;;;;;;22.76;92.96;98774.63;343625;28;904;-75
2023/07/02 00:28:23;;;;;;;;;;;;;;;22.76;93.30;98771.13;340244;28;1437;-75
2023/07/02 00:28:34;;;;;;;;;;;;;;;22.77;92.96;98772.81;335785;28;1811;-75
2023/07/02 00:28:44;;;;;;;;;;;;;;;22.76;93.15;98774.63;339639;29;1221;-74
2023/07/02 00:28:54;;;;;;;;;;;;;;;22.76;93.43;98774.63;340235;28;1629;-75
2023/07/02 00:29:05;;;;;;;;;;;;;;;22.76;92.93;98771.13;338405;28;1397;-74
2023/07/02 00:29:16;;;;;;;;;;;;;;;22.75;93.19;98770.28;340927;29;1781;-74
2023/07/02 00:29:26;;;;;;;;;;;;;;;22.75;93.32;98767.63;342053;28;1020;-74
2023/07/02 00:29:36;;;;;;;;;;;;;;;22.76;93.21;98769.28;336906;29;1677;-74
2023/07/02 00:29:46;;;;;;;;;;;;;;;22.77;93.47;98770.13;335734;29;1369;-75
2023/07/02 00:29:57;;;;;;;;;;;;;;;22.77;93.18;98768.31;330031;29;2687;-74
2023/07/02 00:30:08;;;;;;;;;;;;;;;22.77;93.39;98768.31;327420;29;3152;-74
2023/07/02 00:30:20;;;;;;;;;;;;;;;22.77;93.28;98768.31;327180;29;5569;-74
2023/07/02 00:30:30;;;;;;;;;;;;;;;22.77;92.97;98770.97;329203;30;5583;-75
2023/07/02 00:30:41;;;;;;;;;;;;;;;22.78;92.97;98770.00;331967;29;2190;-75
2023/07/02 00:30:51;;;;;;;;;;;;;;;22.78;93.16;98770.00;330439;29;2222;-76
2023/07/02 00:31:02;;;;;;;;;;;;;;;22.79;92.75;98768.16;325878;30;1591;-76
2023/07/02 00:31:12;;;;;;;;;;;;;;;22.80;93.05;98772.50;328964;29;1918;-76
2023/07/02 00:31:23;;;;;;;;;;;;;;;22.80;93.08;98768.00;329321;30;1625;-75
2023/07/02 00:31:33;;;;;;;;;;;;;;;22.80;92.69;98770.69;325456;30;1628;-74
2023/07/02 00:31:43;;;;;;;;;;;;;;;22.79;93.04;98769.00;323382;30;1502;-74
2023/07/02 00:31:53;;;;;;;;;;;;;;;22.79;93.12;98766.34;322388;30;1855;-74
2023/07/02 00:32:04;;;;;;;;;;;;;;;22.80;92.90;98772.50;321791;30;2250;-75
2023/07/02 00:32:14;;;;;;;;;;;;;;;22.80;93.13;98768.00;323355;30;974;-75
2023/07/02 00:32:24;;;;;;;;;;;;;;;22.80;92.92;98770.69;319414;30;2710;-74
2023/07/02 00:32:35;;;;;;;;;;;;;;;22.81;93.06;98774.19;319594;30;3327;-75
2023/07/02 00:32:45;;;;;;;;;;;;;;;22.80;93.15;98769.84;322129;30;1262;-74
2023/07/02 00:32:55;;;;;;;;;;;;;;;22.78;93.39;98769.13;319060;30;3523;-75
2023/07/02 00:33:06;;;;;;;;;;;;;;;22.77;93.38;98768.31;318411;30;3153;-75
2023/07/02 00:33:16;;;;;;;;;;;;;;;22.77;93.03;98767.47;319874;30;818;-75
2023/07/02 00:33:26;;;;;;;;;;;;;;;22.77;93.21;98768.31;319740;30;2864;-75
2023/07/02 00:33:37;;;;;;;;;;;;;;;22.76;93.28;98765.78;315579;31;1814;-75
2023/07/02 00:33:47;;;;;;;;;;;;;;;22.75;93.18;98767.63;315336;31;858;-75
2023/07/02 00:34:00;;;;;;;;;;;;;;;22.76;93.35;98763.97;316251;31;2686;-75
2023/07/02 00:34:11;;;;;;;;;;;;;;;22.76;93.34;98766.63;313555;31;3522;-76
2023/07/02 00:34:21;;;;;;;;;;;;;;;22.76;93.41;98766.63;311419;31;3491;-75
2023/07/02 00:34:31;;;;;;;;;;;;;;;22.76;93.37;98771.97;313032;31;850;-75
2023/07/02 00:34:43;;;;;;;;;;;;;;;22.75;93.60;98766.78;307689;31;4434;-74
2023/07/02 00:34:53;;;;;;;;;;;;;;;22.74;93.34;98771.28;304868;32;4525;-74
2023/07/02 00:35:03;;;;;;;;;;;;;;;22.72;93.55;98770.63;301368;32;5636;-75
2023/07/02 00:35:13;;;;;;;;;;;;;;;22.72;93.17;98770.63;303825;32;1213;-75
2023/07/02 00:35:25;;;;;;;;;;;;;;;22.72;93.42;98772.44;302121;32;4224;-75
2023/07/02 00:35:35;;;;;;;;;;;;;;;22.72;93.39;98767.94;302769;32;4069;-74
2023/07/02 00:35:46;;;;;;;;;;;;;;;22.73;93.60;98777.63;302326;32;897;-74
2023/07/02 00:35:56;;;;;;;;;;;;;;;22.72;93.38;98775.09;298899;32;2501;-74
2023/07/02 00:36:06;;;;;;;;;;;;;;;22.72;93.91;98770.63;297566;32;3550;-75
2023/07/02 00:36:17;;;;;;;;;;;;;;;22.73;93.46;98776.78;297325;33;799;-74
2023/07/02 00:36:28;;;;;;;;;;;;;;;22.71;93.40;98771.59;293755;33;5043;-74
2023/07/02 00:36:38;;;;;;;;;;;;;;;22.71;93.64;98768.09;293313;33;4470;-76
2023/07/02 00:36:48;;;;;;;;;;;;;;;22.69;93.60;98770.94;289519;33;7244;-75
2023/07/02 00:36:58;;;;;;;;;;;;;;;22.69;93.79;98764.75;289439;34;1496;-76
2023/07/02 00:37:09;;;;;;;;;;;;;;;22.69;93.79;98770.94;287975;34;6126;-75
2023/07/02 00:37:19;;;;;;;;;;;;;;;22.69;93.68;98776.25;287096;34;8803;-75
2023/07/02 00:37:29;;;;;;;;;;;;;;;22.69;93.60;98776.25;287538;34;900;-76
2023/07/02 00:37:39;;;;;;;;;;;;;;;22.69;93.72;98773.59;286168;34;5443;-76
2023/07/02 00:37:50;;;;;;;;;;;;;;;22.70;93.73;98777.09;285562;34;5815;-75
2023/07/02 00:38:00;;;;;;;;;;;;;;;22.70;93.71;98772.59;284838;34;1101;-75
2023/07/02 00:38:10;;;;;;;;;;;;;;;22.71;93.64;98768.09;281424;34;3512;-75
2023/07/02 00:38:21;;;;;;;;;;;;;;;22.70;94.04;98769.94;280403;34;4995;-75
2023/07/02 00:38:31;;;;;;;;;;;;;;;22.70;93.57;98777.94;282829;35;1060;-75
2023/07/02 00:38:42;;;;;;;;;;;;;;;22.72;93.67;98767.09;283500;34;6730;-74
2023/07/02 00:38:52;;;;;;;;;;;;;;;22.72;93.83;98780.44;279301;34;8645;-74
2023/07/02 00:39:03;;;;;;;;;;;;;;;22.70;93.55;98777.94;277309;35;1261;-74
2023/07/02 00:39:13;;;;;;;;;;;;;;;22.69;93.98;98776.25;275482;35;3734;-74
2023/07/02 00:39:26;;;;;;;;;;;;;;;22.67;94.02;98775.59;271882;35;8211;-74
2023/07/02 00:39:36;;;;;;;;;;;;;;;22.62;94.34;98772.56;271989;35;11597;-74
2023/07/02 00:39:47;;;;;;;;;;;;;;;22.60;94.42;98774.56;273288;36;5822;-74
2023/07/02 00:41:59;;;;;;;;;;;;;;;22.70;93.80;98772.59;2503119;27;19936;-74
2023/07/02 00:42:11;;;;;;;;;;;;;;;22.70;93.86;98769.94;354741;27;816;-74
2023/07/02 00:42:23;;;;;;;;;;;;;;;22.70;93.62;98771.75;354715;27;847;-74
2023/07/02 00:42:33;;;;;;;;;;;;;;;22.68;93.81;98769.25;351980;28;1915;-74
2023/07/02 00:42:43;;;;;;;;;;;;;;;22.68;93.56;98777.25;350369;28;1235;-73
2023/07/02 00:42:53;;;;;;;;;;;;;;;22.67;94.18;98766.75;347729;28;1193;-73
2023/07/02 00:43:04;;;;;;;;;;;;;;;22.66;93.81;98775.75;348922;28;1205;-74
2023/07/02 00:43:14;;;;;;;;;;;;;;;22.65;94.37;98769.56;350531;28;1316;-74
2023/07/02 00:43:24;;;;;;;;;;;;;;;22.64;94.11;98773.25;350586;28;903;-74
2023/07/02 00:43:34;;;;;;;;;;;;;;;22.60;94.34;98771.88;351291;28;1435;-74
2023/07/02 00:43:44;;;;;;;;;;;;;;;22.60;94.99;98771.88;351794;28;887;-75
2023/07/02 00:43:55;;;;;;;;;;;;;;;22.61;94.65;98770.06;349080;28;1188;-75
2023/07/02 00:44:05;;;;;;;;;;;;;;;22.62;94.68;98766.38;348534;28;1340;-75
2023/07/02 00:44:15;;;;;;;;;;;;;;;22.62;94.56;98769.06;346164;28;1291;-75
2023/07/02 00:44:26;;;;;;;;;;;;;;;22.62;94.70;98775.22;347619;28;1438;-74
2023/07/02 00:44:40;;;;;;;;;;;;;;;22.63;94.55;98765.41;348965;28;828;-75
2023/07/02 00:44:52;;;;;;;;;;;;;;;22.63;94.80;98768.06;349089;28;1366;-75
2023/07/02 00:45:02;;;;;;;;;;;;;;;22.60;94.68;98777.22;349032;28;856;-74
2023/07/02 00:45:13;;;;;;;;;;;;;;;22.60;94.91;98771.88;350417;28;1315;-74
2023/07/02 00:45:26;;;;;;;;;;;;;;;22.60;95.30;98771.88;351853;28;808;-74
2023/07/02 00:45:38;;;;;;;;;;;;;;;22.61;94.63;98770.88;347500;28;1275;-75
2023/07/02 00:45:53;;;;;;;;;;;;;;;22.62;94.65;98769.91;347739;28;1263;-74
2023/07/02 00:46:03;;;;;;;;;;;;;;;22.64;94.79;98765.22;349251;28;1398;-74
2023/07/02 00:46:17;;;;;;;;;;;;;;;22.66;94.61;98771.25;350489;28;1480;-74
2023/07/02 00:46:27;;;;;;;;;;;;;;;22.67;95.23;98772.91;344944;28;1307;-75
2023/07/02 00:46:37;;;;;;;;;;;;;;;22.65;95.56;98769.56;347633;28;967;-75
2023/07/02 00:46:48;;;;;;;;;;;;;;;22.64;95.46;98767.91;347723;28;892;-74
2023/07/02 00:46:58;;;;;;;;;;;;;;;22.65;94.97;98769.56;346373;28;791;-74
2023/07/02 00:47:08;;;;;;;;;;;;;;;22.66;95.22;98771.25;346232;28;1299;-74
2023/07/02 00:47:18;;;;;;;;;;;;;;;22.67;95.01;98775.59;346892;28;747;-74
2023/07/02 00:47:30;;;;;;;;;;;;;;;22.68;94.85;98769.25;347812;28;1234;-74
2023/07/02 00:47:40;;;;;;;;;;;;;;;22.71;94.76;98768.94;348316;28;1863;-74
2023/07/02 00:47:50;;;;;;;;;;;;;;;22.70;94.72;98763.75;347125;28;1737;-74
2023/07/02 00:48:01;;;;;;;;;;;;;;;22.71;94.70;98768.94;347508;28;1477;-74
2023/07/02 00:48:11;;;;;;;;;;;;;;;22.72;95.07;98762.59;344895;28;1320;-74
2023/07/02 00:48:21;;;;;;;;;;;;;;;22.74;94.61;98768.63;345984;28;3678;-74
2023/07/02 00:48:31;;;;;;;;;;;;;;;22.74;94.69;98770.44;345695;28;3272;-74
2023/07/02 00:48:41;;;;;;;;;;;;;;;22.72;95.01;98770.63;347108;28;4787;-74
2023/07/02 00:48:52;;;;;;;;;;;;;;;22.74;94.79;98768.63;345758;28;3174;-74
2023/07/02 00:49:04;;;;;;;;;;;;;;;22.74;94.63;98768.63;345149;28;3009;-74
2023/07/02 00:49:14;;;;;;;;;;;;;;;22.75;94.32;98764.97;346097;28;1933;-74
2023/07/02 00:49:24;;;;;;;;;;;;;;;22.73;94.38;98772.28;344807;28;1295;-74
2023/07/02 00:49:34;;;;;;;;;;;;;;;22.73;93.95;98768.78;345769;28;908;-74
2023/07/02 00:49:45;;;;;;;;;;;;;;;22.72;93.88;98773.28;346623;28;1420;-75
2023/07/02 00:49:55;;;;;;;;;;;;;;;22.71;93.67;98768.94;346367;28;1357;-74
2023/07/02 00:50:05;;;;;;;;;;;;;;;22.72;94.11;98770.63;343505;28;1793;-74
2023/07/02 00:50:16;;;;;;;;;;;;;;;22.72;93.97;98770.63;342767;28;1378;-74
2023/07/02 00:50:26;;;;;;;;;;;;;;;22.73;94.03;98772.28;347782;28;1339;-75
2023/07/02 00:50:36;;;;;;;;;;;;;;;22.72;93.71;98773.28;345033;28;1442;-74
2023/07/02 00:50:46;;;;;;;;;;;;;;;22.72;93.94;98767.94;344706;28;1116;-74
2023/07/02 00:50:57;;;;;;;;;;;;;;;22.73;93.86;98774.13;345997;28;1247;-74
2023/07/02 00:51:07;;;;;;;;;;;;;;;22.74;94.10;98771.28;342222;28;1221;-74
2023/07/02 00:51:19;;;;;;;;;;;;;;;22.74;94.05;98768.63;342223;28;849;-75
2023/07/02 00:51:30;;;;;;;;;;;;;;;22.71;93.40;98768.09;342154;28;808;-75
2023/07/02 00:51:41;;;;;;;;;;;;;;;22.64;93.03;98772.41;341042;29;1317;-75
2023/07/02 00:51:51;;;;;;;;;;;;;;;22.62;93.51;98764.56;339779;28;1483;-75
2023/07/02 00:52:01;;;;;;;;;;;;;;;22.63;93.53;98766.22;340182;28;2077;-74
2023/07/02 00:52:11;;;;;;;;;;;;;;;22.63;93.42;98770.72;338338;29;1219;-75
2023/07/02 00:52:25;;;;;;;;;;;;;;;22.64;93.24;98772.41;334524;29;1788;-75
2023/07/02 00:52:35;;;;;;;;;;;;;;;22.63;93.13;98766.22;337451;29;1963;-74
2023/07/02 00:52:46;;;;;;;;;;;;;;;22.58;93.13;98769.38;339277;29;2048;-75
2023/07/02 00:52:56;;;;;;;;;;;;;;;22.58;92.70;98773.88;339522;29;1375;-74
2023/07/02 00:53:06;;;;;;;;;;;;;;;22.60;93.27;98763.03;340365;29;1327;-74
2023/07/02 00:53:16;;;;;;;;;;;;;;;22.61;93.25;98767.38;340974;29;855;-74
2023/07/02 00:53:27;;;;;;;;;;;;;;;22.61;93.06;98765.56;338343;29;1336;-75
2023/07/02 00:53:37;;;;;;;;;;;;;;;22.62;92.95;98764.56;338041;29;1587;-74
2023/07/02 00:53:48;;;;;;;;;;;;;;;22.64;93.33;98764.41;336818;29;1633;-74
2023/07/02 00:53:58;;;;;;;;;;;;;;;22.64;93.27;98761.72;334509;29;1343;-74
2023/07/02 00:54:08;;;;;;;;;;;;;;;22.63;94.13;98760.91;332736;29;2147;-75
2023/07/02 00:54:18;;;;;;;;;;;;;;;22.63;93.94;98758.22;334116;29;2248;-75
2023/07/02 00:54:29;;;;;;;;;;;;;;;22.63;93.83;98763.56;334976;29;3261;-75
2023/07/02 00:54:40;;;;;;;;;;;;;;;22.65;93.69;98755.41;338391;29;798;-75
2023/07/02 00:54:50;;;;;;;;;;;;;;;22.65;93.09;98761.56;336627;29;2170;-75
2023/07/02 00:55:01;;;;;;;;;;;;;;;22.67;93.62;98767.59;334321;29;2133;-75
2023/07/02 00:55:11;;;;;;;;;;;;;;;22.68;93.57;98763.09;328799;29;1325;-76
2023/07/02 00:55:22;;;;;;;;;;;;;;;22.69;93.30;98760.25;329158;30;1719;-75
2023/07/02 00:55:32;;;;;;;;;;;;;;;22.70;93.84;98761.09;327563;30;1517;-75
2023/07/02 00:55:42;;;;;;;;;;;;;;;22.71;93.70;98763.59;329496;30;1247;-76
2023/07/02 00:55:52;;;;;;;;;;;;;;;22.72;93.49;98765.28;329778;29;1855;-76
2023/07/02 00:56:03;;;;;;;;;;;;;;;22.73;93.55;98756.28;328778;29;2267;-76
2023/07/02 00:56:13;;;;;;;;;;;;;;;22.74;93.66;98762.44;329606;30;1327;-76
2023/07/02 00:56:24;;;;;;;;;;;;;;;22.74;93.49;98757.94;330523;29;2676;-76
2023/07/02 00:56:34;;;;;;;;;;;;;;;22.76;93.06;98760.47;326158;30;3276;-76
2023/07/02 00:56:45;;;;;;;;;;;;;;;22.75;93.14;98759.63;322658;30;3699;-76
2023/07/02 00:56:57;;;;;;;;;;;;;;;22.74;92.70;98757.94;322040;30;1550;-76
2023/07/02 00:57:07;;;;;;;;;;;;;;;22.72;91.67;98756.44;325667;30;3713;-76
2023/07/02 00:57:17;;;;;;;;;;;;;;;22.71;91.77;98760.09;324443;30;2571;-76
2023/07/02 00:57:29;;;;;;;;;;;;;;;22.69;91.82;98757.59;321091;30;1311;-76
2023/07/02 00:57:40;;;;;;;;;;;;;;;22.69;91.81;98762.94;317648;31;1443;-77
2023/07/02 00:57:51;;;;;;;;;;;;;;;22.69;91.92;98754.91;319295;30;1861;-76
2023/07/02 00:58:01;;;;;;;;;;;;;;;22.68;92.08;98760.41;318687;30;2801;-76
2023/07/02 00:58:15;;;;;;;;;;;;;;;22.68;91.87;98760.41;317667;31;1239;-76
2023/07/02 00:58:26;;;;;;;;;;;;;;;22.68;91.71;98761.25;315278;31;1386;-76
2023/07/02 00:58:37;;;;;;;;;;;;;;;22.68;91.99;98758.59;314834;31;4381;-75
2023/07/02 00:58:50;;;;;;;;;;;;;;;22.69;92.20;98757.59;314584;31;5331;-76
2023/07/02 00:59:01;;;;;;;;;;;;;;;22.68;92.21;98755.91;311441;31;5250;-76
2023/07/02 00:59:11;;;;;;;;;;;;;;;22.69;92.44;98754.91;311904;31;1284;-77
2023/07/02 00:59:21;;;;;;;;;;;;;;;22.70;92.23;98755.75;308857;31;4227;-76
2023/07/02 00:59:33;;;;;;;;;;;;;;;22.69;92.17;98754.91;309918;31;3817;-76
2023/07/02 00:59:44;;;;;;;;;;;;;;;22.70;92.32;98753.94;311062;31;2913;-76
2023/07/02 00:59:57;;;;;;;;;;;;;;;22.69;91.80;98752.25;310950;31;796;-77
2023/07/02 01:00:07;;;;;;;;;;;;;;;22.70;91.68;98755.75;305129;31;2844;-77
2023/07/02 01:00:18;;;;;;;;;;;;;;;22.70;91.57;98756.59;300758;32;4110;-76
2023/07/02 01:00:28;;;;;;;;;;;;;;;22.69;90.82;98754.91;297242;33;1205;-76
2023/07/02 01:00:38;;;;;;;;;;;;;;;22.69;90.99;98754.91;296851;33;4264;-76
2023/07/02 01:00:49;;;;;;;;;;;;;;;22.68;90.68;98753.25;295670;33;5836;-76
2023/07/02 01:00:59;;;;;;;;;;;;;;;22.68;90.67;98752.41;294291;33;7824;-76
2023/07/02 01:01:09;;;;;;;;;;;;;;;22.68;90.69;98757.75;292981;33;1933;-76
2023/07/02 01:01:20;;;;;;;;;;;;;;;22.67;90.70;98754.25;290631;33;7344;-76
2023/07/02 01:01:37;;;;;;;;;;;;;;;22.68;90.44;98755.09;290099;33;6086;-76